createdAt,value
2024-04-17T00:00:44.366Z,10.50
2024-04-17T00:05:49.752Z,9.82
2024-04-17T00:10:57.830Z,11.50
2024-04-17T00:16:04.127Z,8.88
2024-04-17T00:21:09.682Z,14.50
2024-04-17T00:26:17.650Z,12.27
2024-04-17T00:31:22.997Z,11.73
2024-04-17T00:36:28.338Z,7.30
2024-04-17T00:41:36.471Z,10.38
2024-04-17T00:46:42.129Z,9.05
2024-04-17T00:51:47.495Z,9.32
2024-04-17T00:56:56.014Z,8.05
2024-04-17T01:02:01.779Z,10.60
2024-04-17T01:07:07.319Z,8.87
2024-04-17T01:12:15.288Z,11.32
2024-04-17T01:17:21.215Z,9.93
2024-04-17T01:22:26.623Z,9.53
2024-04-17T01:27:34.627Z,12.18
2024-04-17T01:32:40.182Z,7.50
2024-04-17T01:37:45.571Z,12.07
2024-04-17T01:42:53.508Z,8.30
2024-04-17T01:47:58.984Z,12.40
2024-04-17T01:53:04.324Z,8.17
2024-04-17T01:58:13.766Z,11.13
2024-04-17T02:03:19.206Z,9.70
2024-04-17T02:08:24.547Z,9.80
2024-04-17T02:13:32.561Z,9.90
2024-04-17T02:18:38.502Z,13.17
2024-04-17T02:23:43.855Z,11.53
2024-04-17T02:28:51.815Z,11.73
2024-04-17T02:33:57.176Z,8.37
2024-04-17T02:39:02.535Z,10.17
2024-04-17T02:44:10.633Z,11.27
2024-04-17T02:49:15.944Z,11.23
2024-04-17T02:54:21.291Z,9.80
2024-04-17T02:59:29.250Z,19.17
2024-04-17T03:04:34.659Z,13.23
2024-04-17T03:09:40.066Z,11.13
2024-04-17T03:14:48.041Z,11.50
2024-04-17T03:19:53.576Z,10.70
2024-04-17T03:24:58.928Z,7.37
2024-04-17T03:30:07.508Z,10.37
2024-04-17T03:35:13.064Z,10.87
2024-04-17T03:40:18.612Z,8.43
2024-04-17T03:45:26.946Z,8.90
2024-04-17T03:50:32.287Z,9.07
2024-04-17T03:55:37.672Z,11.57
2024-04-17T04:00:45.614Z,9.87
2024-04-17T04:05:50.904Z,10.57
2024-04-17T04:10:56.296Z,11.03
2024-04-17T04:16:04.370Z,8.77
2024-04-17T04:21:09.755Z,6.63
2024-04-17T04:26:15.057Z,11.03
2024-04-17T04:31:23.096Z,9.47
2024-04-17T04:36:28.421Z,11.33
2024-04-17T04:41:34.317Z,7.80
2024-04-17T04:46:42.393Z,11.00
2024-04-17T04:51:47.724Z,14.83
2024-04-17T04:56:54.904Z,8.83
2024-04-17T05:02:02.949Z,10.57
2024-04-17T05:07:08.597Z,13.90
2024-04-17T05:12:13.958Z,13.47
2024-04-17T05:17:21.940Z,10.30
2024-04-17T05:22:27.296Z,10.73
2024-04-17T05:27:32.638Z,10.60
2024-04-17T05:32:40.675Z,11.57
2024-04-17T05:37:46.037Z,8.97
2024-04-17T05:42:51.505Z,10.67
2024-04-17T05:47:59.658Z,15.07
2024-04-17T05:53:05.190Z,7.17
2024-04-17T05:58:10.530Z,11.30
2024-04-17T06:03:18.524Z,12.00
2024-04-17T06:08:23.880Z,11.80
2024-04-17T06:13:29.255Z,14.77
2024-04-17T06:18:37.336Z,14.50
2024-04-17T06:23:42.701Z,12.80
2024-04-17T06:28:48.065Z,10.57
2024-04-17T06:33:56.100Z,8.67
2024-04-17T06:39:02.309Z,8.67
2024-04-17T06:44:07.919Z,10.80
2024-04-17T06:49:16.104Z,9.07
2024-04-17T06:54:21.451Z,8.50
2024-04-17T06:59:29.912Z,8.77
2024-04-17T07:04:38.311Z,8.37
2024-04-17T07:09:43.750Z,9.30
2024-04-17T07:14:50.157Z,5.17
2024-04-17T07:19:58.298Z,7.20
2024-04-17T07:25:03.909Z,6.10
2024-04-17T07:30:11.006Z,6.43
2024-04-17T07:35:19.142Z,6.00
2024-04-17T07:40:24.524Z,5.33
2024-04-17T07:45:29.888Z,6.43
2024-04-17T07:50:37.839Z,8.67
2024-04-17T07:55:43.231Z,7.40
2024-04-17T08:00:48.893Z,7.10
2024-04-17T08:05:57.130Z,3.63
2024-04-17T08:11:02.537Z,3.97
2024-04-17T08:16:08.656Z,3.60
2024-04-17T08:21:17.427Z,4.80
2024-04-17T08:26:22.813Z,2.43
2024-04-17T08:31:28.206Z,4.07
2024-04-17T08:36:36.316Z,2.43
2024-04-17T08:41:50.765Z,3.07
2024-04-17T08:46:58.193Z,1.80
2024-04-17T08:52:07.217Z,1.30
2024-04-17T08:57:14.789Z,1.03
2024-04-17T09:02:20.891Z,2.33
2024-04-17T09:07:29.726Z,1.27
2024-04-17T09:12:35.335Z,1.57
2024-04-17T09:17:40.879Z,1.93
2024-04-17T09:22:49.013Z,0.70
2024-04-17T09:27:54.381Z,3.00
2024-04-17T09:33:00.381Z,1.08
2024-04-17T09:38:14.778Z,0.98
2024-04-17T09:43:29.920Z,1.17
2024-04-17T09:48:42.524Z,2.58
2024-04-17T09:53:57.391Z,1.13
2024-04-17T09:59:08.449Z,2.57
2024-04-17T10:04:17.443Z,4.00
2024-04-17T10:09:28.722Z,4.30
2024-04-17T10:14:34.973Z,6.10
2024-04-17T10:19:41.022Z,5.00
2024-04-17T10:24:49.401Z,4.95
2024-04-17T10:29:54.734Z,4.10
2024-04-17T10:35:00.087Z,4.33
2024-04-17T10:40:09.565Z,6.50
2024-04-17T10:45:15.509Z,5.93
2024-04-17T10:50:21.269Z,5.28
2024-04-17T10:55:30.466Z,5.70
2024-04-17T11:00:35.900Z,4.05
2024-04-17T11:05:41.362Z,4.97
2024-04-17T11:10:50.445Z,4.40
2024-04-17T11:15:55.889Z,3.60
2024-04-17T11:21:01.243Z,3.05
2024-04-17T11:26:09.297Z,6.22
2024-04-17T11:31:14.922Z,6.60
2024-04-17T11:36:20.625Z,4.65
2024-04-17T11:41:28.620Z,4.30
2024-04-17T11:46:34.010Z,4.10
2024-04-17T11:51:39.380Z,3.30
2024-04-17T11:56:47.493Z,5.85
2024-04-17T12:01:54.815Z,5.03
2024-04-17T12:07:01.324Z,4.15
2024-04-17T12:12:10.173Z,4.15
2024-04-17T12:17:15.979Z,6.03
2024-04-17T12:22:22.201Z,4.70
2024-04-17T12:27:30.186Z,4.38
2024-04-17T12:32:35.546Z,3.28
2024-04-17T12:37:41.246Z,5.55
2024-04-17T12:42:49.240Z,3.22
2024-04-17T12:47:56.098Z,4.32
2024-04-17T12:53:02.553Z,10.48
2024-04-17T12:58:11.018Z,2.72
2024-04-17T13:03:16.379Z,3.70
2024-04-17T13:08:25.190Z,2.67
2024-04-17T13:13:33.419Z,1.90
2024-04-17T13:18:40.218Z,2.38
2024-04-17T13:23:45.828Z,3.67
2024-04-17T13:28:54.042Z,5.18
2024-04-17T13:33:59.360Z,4.28
2024-04-17T13:39:04.820Z,2.72
2024-04-17T13:44:12.875Z,1.27
2024-04-17T13:49:18.420Z,2.75
2024-04-17T13:54:23.786Z,3.20
2024-04-17T13:59:31.782Z,3.53
2024-04-17T14:04:37.163Z,3.00
2024-04-17T14:09:42.582Z,5.90
2024-04-17T14:14:50.650Z,3.70
2024-04-17T14:19:56.090Z,2.40
2024-04-17T14:25:01.421Z,3.60
2024-04-17T14:30:11.459Z,4.22
2024-04-17T14:35:17.479Z,2.75
2024-04-17T14:40:23.085Z,3.03
2024-04-17T14:45:31.184Z,3.05
2024-04-17T14:50:36.537Z,1.95
2024-04-17T14:55:41.893Z,2.38
2024-04-17T15:00:51.756Z,6.07
2024-04-17T15:05:57.425Z,1.73
2024-04-17T15:11:07.246Z,3.38
2024-04-17T15:16:16.703Z,3.88
2024-04-17T15:21:23.183Z,2.42
2024-04-17T15:26:28.537Z,1.52
2024-04-17T15:31:36.577Z,1.58
2024-04-17T15:36:45.691Z,1.25
2024-04-17T15:41:51.070Z,0.73
2024-04-17T15:46:59.090Z,1.38
2024-04-17T15:52:04.437Z,1.10
2024-04-17T15:57:09.818Z,1.35
2024-04-17T16:02:17.884Z,1.05
2024-04-17T16:07:23.236Z,1.02
2024-04-17T16:12:28.793Z,2.05
2024-04-17T16:17:36.982Z,1.65
2024-04-17T16:22:42.405Z,3.35
2024-04-17T16:27:47.775Z,1.85
2024-04-17T16:32:55.894Z,1.95
2024-04-17T16:38:02.964Z,3.10
2024-04-17T16:43:08.351Z,1.23
2024-04-17T16:48:16.422Z,3.05
2024-04-17T16:53:21.814Z,1.38
2024-04-17T16:58:27.173Z,1.45
2024-04-17T17:03:35.683Z,2.88
2024-04-17T17:08:41.240Z,1.77
2024-04-17T17:13:46.602Z,1.63
2024-04-17T17:18:54.628Z,4.47
2024-04-17T17:24:00.070Z,1.50
2024-04-17T17:29:05.489Z,1.70
2024-04-17T17:34:13.519Z,2.55
2024-04-17T17:39:26.555Z,1.85
2024-04-17T17:44:32.878Z,2.28
2024-04-17T17:49:42.980Z,1.50
2024-04-17T17:54:49.610Z,2.30
2024-04-17T17:59:55.777Z,3.80
2024-04-17T18:05:03.861Z,1.48
2024-04-17T18:10:09.627Z,2.05
2024-04-17T18:15:15.088Z,5.30
2024-04-17T18:20:26.567Z,4.78
2024-04-17T18:25:31.936Z,6.13
2024-04-17T18:30:37.433Z,5.90
2024-04-17T18:35:45.516Z,5.55
2024-04-17T18:40:50.880Z,6.15
2024-04-17T18:45:56.955Z,5.70
2024-04-17T18:51:04.993Z,6.90
2024-04-17T18:56:12.790Z,6.50
2024-04-17T19:01:20.394Z,7.45
2024-04-17T19:06:29.148Z,8.65
2024-04-17T19:11:34.546Z,7.47
2024-04-17T19:16:40.314Z,8.27
2024-04-17T19:21:48.314Z,7.65
2024-04-17T19:26:54.119Z,7.40
2024-04-17T19:31:59.478Z,6.97
2024-04-17T19:37:08.366Z,4.28
2024-04-17T19:42:21.213Z,3.72
2024-04-17T19:47:32.500Z,2.08
2024-04-17T19:52:45.511Z,1.80
2024-04-17T19:57:50.896Z,1.92
2024-04-17T20:02:56.222Z,2.15
2024-04-17T20:08:05.488Z,1.92
2024-04-17T20:13:13.383Z,2.00
2024-04-17T20:18:19.638Z,2.08
2024-04-17T20:23:27.990Z,2.28
2024-04-17T20:28:33.710Z,2.58
2024-04-17T20:33:44.052Z,2.92
2024-04-17T20:38:53.199Z,3.72
2024-04-17T20:43:58.653Z,3.25
2024-04-17T20:49:04.255Z,4.53
2024-04-17T20:54:16.515Z,2.70
2024-04-17T20:59:21.942Z,2.67
2024-04-17T21:04:27.324Z,4.10
2024-04-17T21:09:35.325Z,3.58
2024-04-17T21:14:40.651Z,3.53
2024-04-17T21:19:45.984Z,2.97
2024-04-17T21:24:54.038Z,2.92
2024-04-17T21:29:59.374Z,3.03
2024-04-17T21:35:06.909Z,3.85
2024-04-17T21:40:15.320Z,3.88
2024-04-17T21:45:21.783Z,8.25
2024-04-17T21:50:28.815Z,4.22
2024-04-17T21:55:36.819Z,4.15
2024-04-17T22:00:43.167Z,4.05
2024-04-17T22:05:48.562Z,4.03
2024-04-17T22:10:56.525Z,3.58
2024-04-17T22:16:02.340Z,4.10
2024-04-17T22:21:07.828Z,4.75
2024-04-17T22:26:19.031Z,5.10
2024-04-17T22:31:24.395Z,4.45
2024-04-17T22:36:29.748Z,4.50
2024-04-17T22:41:37.802Z,3.50
2024-04-17T22:46:43.118Z,3.90
2024-04-17T22:51:48.527Z,4.00
2024-04-17T22:56:59.340Z,4.65
2024-04-17T23:02:05.282Z,4.38
2024-04-17T23:07:11.732Z,4.07
2024-04-17T23:12:19.727Z,3.70
2024-04-17T23:17:25.130Z,4.40
2024-04-17T23:22:30.424Z,5.60
2024-04-17T23:27:38.605Z,5.97
2024-04-17T23:32:44.015Z,4.97
2024-04-17T23:37:49.400Z,5.00
2024-04-17T23:42:58.041Z,4.78
2024-04-17T23:48:03.406Z,5.07
2024-04-17T23:53:08.778Z,3.87
2024-04-17T23:58:16.718Z,5.37
